Time;durP1;ratioP1;P1;durP2;ratioP2;P2;SDS_P1;SDS_P2;PMS_P1;PMS_P2;Temp;Humidity;BMP_temperature;BMP_pressure;BME280_temperature;BME280_humidity;BME280_pressure;Samples;Min_cycle;Max_cycle;Signal;HPM_P1;HPM_P2
2023/01/26 00:00:22;;;;;;;29.77;14.13;;;;;;;-2.71;100.00;93260.44;2544556;23;20032;-83
2023/01/26 00:01:29;;;;;;;29.85;14.70;;;;;;;-2.64;100.00;93258.00;2545345;23;20057;-82
2023/01/26 00:02:29;;;;;;;29.77;14.95;;;;;;;-2.64;100.00;93260.63;2558980;23;20039;-83
2023/01/26 00:03:30;;;;;;;31.85;15.40;;;;;;;-2.59;100.00;93263.06;2557059;23;20490;-84
2023/01/26 00:04:32;;;;;;;27.20;14.85;;;;;;;-2.54;100.00;93254.22;2557202;23;20032;-85
2023/01/26 00:05:36;;;;;;;28.30;14.60;;;;;;;-2.57;100.00;93254.84;2569540;23;20012;-83
2023/01/26 00:06:37;;;;;;;31.20;15.85;;;;;;;-2.65;100.00;93243.41;2558624;23;20470;-81
2023/01/26 00:07:41;;;;;;;34.35;17.08;;;;;;;-2.67;100.00;93250.84;2557137;23;20001;-83
2023/01/26 00:08:48;;;;;;;33.15;15.63;;;;;;;-2.59;100.00;93252.59;2546250;23;20483;-82
2023/01/26 00:09:49;;;;;;;34.58;15.80;;;;;;;-2.53;100.00;93246.03;2546964;23;20344;-82
2023/01/26 00:10:50;;;;;;;35.30;17.45;;;;;;;-2.62;100.00;93252.47;2557088;23;20004;-84
2023/01/26 00:11:51;;;;;;;35.25;16.92;;;;;;;-2.63;100.00;93246.47;2557040;23;20028;-84
2023/01/26 00:12:52;;;;;;;35.70;16.58;;;;;;;-2.49;100.00;93242.75;2544988;23;20009;-82
2023/01/26 00:13:56;;;;;;;35.95;16.65;;;;;;;-2.52;100.00;93246.78;2556802;23;20071;-84
2023/01/26 00:14:57;;;;;;;35.40;16.48;;;;;;;-2.56;100.00;93245.91;2546303;23;20005;-83
2023/01/26 00:15:59;;;;;;;33.65;16.98;;;;;;;-2.54;100.00;93248.97;2544841;23;20018;-83
2023/01/26 00:17:00;;;;;;;30.65;15.95;;;;;;;-2.50;100.00;93243.81;2545079;23;20002;-83
2023/01/26 00:18:02;;;;;;;42.13;15.38;;;;;;;-2.46;100.00;93245.44;2544677;23;20005;-83
2023/01/26 00:19:03;;;;;;;34.08;14.95;;;;;;;-2.28;100.00;93240.75;2556894;23;20522;-82
2023/01/26 00:20:05;;;;;;;36.05;14.98;;;;;;;-2.12;100.00;93238.19;2544307;23;19998;-82
2023/01/26 00:21:07;;;;;;;33.58;15.95;;;;;;;-2.30;100.00;93241.06;2557106;23;20024;-84
2023/01/26 00:22:08;;;;;;;34.42;15.35;;;;;;;-2.48;100.00;93234.56;2568935;23;20024;-81
2023/01/26 00:23:09;;;;;;;33.17;16.52;;;;;;;-2.53;100.00;93245.25;2544887;23;20053;-83
2023/01/26 00:24:10;;;;;;;31.58;15.73;;;;;;;-2.57;100.00;93250.38;2556820;23;20024;-82
2023/01/26 00:25:11;;;;;;;34.47;17.35;;;;;;;-2.54;100.00;93239.28;2557231;23;20571;-82
2023/01/26 00:26:18;;;;;;;34.70;16.88;;;;;;;-2.57;100.00;93242.53;2544843;23;20399;-85
2023/01/26 00:27:19;;;;;;;35.42;17.05;;;;;;;-2.55;100.00;93234.34;2559591;23;20435;-84
2023/01/26 00:28:20;;;;;;;36.53;16.92;;;;;;;-2.60;100.00;93237.19;2569456;23;20007;-84
2023/01/26 00:29:21;;;;;;;37.47;17.55;;;;;;;-2.54;100.00;93238.50;2556701;23;20056;-83
2023/01/26 00:30:24;;;;;;;37.40;15.93;;;;;;;-2.42;100.00;93235.09;2544854;23;20041;-84
2023/01/26 00:31:27;;;;;;;36.47;15.18;;;;;;;-2.50;100.00;93220.28;2545292;23;20052;-83
2023/01/26 00:32:27;;;;;;;32.15;14.60;;;;;;;-2.56;100.00;93223.13;2545334;23;20001;-85
2023/01/26 00:33:30;;;;;;;63.83;14.75;;;;;;;-2.54;100.00;93225.44;2544889;23;20064;-82
2023/01/26 00:34:31;;;;;;;36.20;14.55;;;;;;;-2.50;100.00;93225.50;2545205;23;20032;-83
2023/01/26 00:35:32;;;;;;;35.17;15.02;;;;;;;-2.49;100.00;93214.72;2556828;23;20396;-84
2023/01/26 00:36:33;;;;;;;34.15;14.77;;;;;;;-2.48;100.00;93212.88;2544551;23;20052;-84
2023/01/26 00:37:34;;;;;;;29.55;14.50;;;;;;;-2.48;100.00;93212.88;2544941;23;20001;-85
2023/01/26 00:38:35;;;;;;;32.00;14.18;;;;;;;-2.59;100.00;93208.09;2555876;23;20266;-83
2023/01/26 00:39:36;;;;;;;30.42;14.75;;;;;;;-2.57;100.00;93213.00;2544892;23;20344;-83
2023/01/26 00:40:38;;;;;;;30.95;14.90;;;;;;;-2.55;100.00;93208.97;2544723;23;20005;-85
2023/01/26 00:42:58;;;;;;;34.03;14.95;;;;;;;-2.47;100.00;93222.25;2577034;22;20043;-84
2023/01/26 00:44:00;;;;;;;28.77;14.45;;;;;;;-2.51;100.00;93210.91;2568895;23;20004;-85
2023/01/26 00:45:00;;;;;;;30.63;15.65;;;;;;;-2.47;100.00;93217.00;2556994;23;20004;-85
2023/01/26 00:46:02;;;;;;;31.30;15.07;;;;;;;-2.57;100.00;93210.38;2544408;23;20008;-82
2023/01/26 00:47:05;;;;;;;26.27;13.85;;;;;;;-2.60;100.00;93211.78;2557412;23;20001;-84
2023/01/26 00:48:06;;;;;;;34.28;15.77;;;;;;;-2.63;100.00;93206.47;2557322;23;20001;-85
2023/01/26 00:49:07;;;;;;;30.85;13.82;;;;;;;-2.63;100.00;93207.25;2556391;23;20029;-83
2023/01/26 00:50:08;;;;;;;29.92;14.18;;;;;;;-2.57;100.00;93213.00;2581336;23;20457;-84
2023/01/26 00:51:09;;;;;;;26.90;14.40;;;;;;;-2.54;100.00;93207.88;2557138;23;20005;-83
2023/01/26 00:52:11;;;;;;;27.00;14.05;;;;;;;-2.47;100.00;93207.28;2557278;23;20005;-84
2023/01/26 00:53:12;;;;;;;28.67;14.00;;;;;;;-2.53;100.00;93212.00;2557119;23;20071;-84
2023/01/26 00:54:13;;;;;;;23.88;13.20;;;;;;;-2.57;100.00;93208.53;2557001;23;20036;-83
2023/01/26 00:55:14;;;;;;;29.55;14.43;;;;;;;-2.67;100.00;93201.13;2557323;23;20028;-83
2023/01/26 00:56:15;;;;;;;27.85;14.02;;;;;;;-2.68;100.00;93202.22;2545220;23;20385;-84
2023/01/26 00:57:16;;;;;;;28.10;13.60;;;;;;;-2.74;100.00;93200.91;2557002;23;20009;-83
2023/01/26 00:58:17;;;;;;;28.50;14.60;;;;;;;-2.66;100.00;93205.28;2544600;23;20002;-85
2023/01/26 00:59:18;;;;;;;29.17;14.48;;;;;;;-2.64;100.00;93202.31;2544513;23;20088;-82
2023/01/26 01:00:19;;;;;;;22.90;13.20;;;;;;;-2.63;100.00;93198.63;2545076;23;20014;-83
2023/01/26 01:01:20;;;;;;;23.88;12.55;;;;;;;-2.54;100.00;93194.03;2544403;23;20084;-85
2023/01/26 01:02:21;;;;;;;24.48;12.55;;;;;;;-2.43;100.00;93196.94;2544659;23;20002;-81
2023/01/26 01:03:22;;;;;;;23.55;12.70;;;;;;;-2.59;100.00;93191.63;2544623;23;20024;-84
2023/01/26 01:04:24;;;;;;;27.00;13.18;;;;;;;-2.60;100.00;93192.72;2556624;23;20001;-82
2023/01/26 01:05:27;;;;;;;23.67;12.50;;;;;;;-2.63;100.00;93190.78;2544739;23;20622;-82
2023/01/26 01:06:28;;;;;;;27.38;14.27;;;;;;;-2.65;100.00;93188.47;2545684;23;20052;-84
2023/01/26 01:07:29;;;;;;;32.45;13.88;;;;;;;-2.52;100.00;93186.59;2545484;23;20362;-83
2023/01/26 01:08:30;;;;;;;34.35;14.50;;;;;;;-2.54;100.00;93186.19;2557521;23;20009;-83
2023/01/26 01:09:31;;;;;;;29.45;12.10;;;;;;;-2.34;100.00;93181.84;2557532;23;20004;-84
2023/01/26 01:10:32;;;;;;;28.08;13.18;;;;;;;-2.37;100.00;93183.28;2561241;23;20048;-80
2023/01/26 01:11:33;;;;;;;23.55;12.48;;;;;;;-2.56;100.00;93183.13;2576327;23;20000;-80
2023/01/26 01:12:34;;;;;;;35.45;13.52;;;;;;;-2.74;100.00;93185.22;2576387;23;20202;-80
2023/01/26 01:13:35;;;;;;;32.38;13.43;;;;;;;-2.79;100.00;93188.06;2560399;23;20051;-85
2023/01/26 01:14:36;;;;;;;36.90;14.43;;;;;;;-2.79;100.00;93180.22;2569055;23;20101;-83
2023/01/26 01:15:37;;;;;;;35.88;14.13;;;;;;;-2.83;100.00;93179.38;2544246;23;20073;-80
2023/01/26 01:16:39;;;;;;;27.38;13.32;;;;;;;-2.87;100.00;93181.88;2544014;23;20005;-84
2023/01/26 01:17:40;;;;;;;35.58;15.02;;;;;;;-2.88;100.00;93182.22;2545111;23;20005;-82
2023/01/26 01:18:43;;;;;;;29.08;13.65;;;;;;;-2.78;100.00;93181.75;2544573;23;20036;-82
2023/01/26 01:19:43;;;;;;;26.33;13.25;;;;;;;-2.77;100.00;93172.81;2545140;23;20016;-83
2023/01/26 01:20:44;;;;;;;33.78;12.98;;;;;;;-2.87;100.00;93178.50;2544450;23;20009;-85
2023/01/26 01:21:45;;;;;;;29.50;12.38;;;;;;;-2.90;100.00;93182.50;2544865;23;20013;-83
2023/01/26 01:22:46;;;;;;;26.90;12.98;;;;;;;-2.89;100.00;93178.84;2544989;23;20005;-82
2023/01/26 01:23:48;;;;;;;27.38;13.50;;;;;;;-2.95;100.00;93174.91;2557425;23;20008;-84
2023/01/26 01:24:49;;;;;;;23.70;13.18;;;;;;;-2.92;100.00;93178.72;2544039;23;20013;-82
2023/01/26 01:26:00;;;;;;;29.50;12.95;;;;;;;-2.95;100.00;93182.75;2555991;23;20009;-85
2023/01/26 01:27:02;;;;;;;25.40;12.73;;;;;;;-3.01;100.00;93178.84;2569705;23;20339;-84
2023/01/26 01:28:03;;;;;;;25.00;12.23;;;;;;;-2.97;100.00;93171.09;2569197;23;20000;-84
2023/01/26 01:29:06;;;;;;;26.02;12.98;;;;;;;-2.90;100.00;93176.53;2569282;23;20015;-84
2023/01/26 01:30:07;;;;;;;27.48;13.05;;;;;;;-2.90;100.00;93181.75;2556897;23;20008;-85
2023/01/26 01:31:12;;;;;;;23.50;13.43;;;;;;;-2.85;100.00;93181.56;2556577;23;20005;-82
2023/01/26 01:32:13;;;;;;;32.92;13.75;;;;;;;-2.84;100.00;93177.84;2545866;23;20033;-84
2023/01/26 01:33:14;;;;;;;32.45;12.45;;;;;;;-2.69;100.00;93171.91;2556546;23;20335;-84
2023/01/26 01:34:14;;;;;;;25.33;13.07;;;;;;;-2.79;100.00;93172.38;2557271;23;20055;-83
2023/01/26 01:35:16;;;;;;;26.48;12.45;;;;;;;-2.69;100.00;93171.91;2568850;22;20004;-83
2023/01/26 01:36:17;;;;;;;23.73;11.73;;;;;;;-2.48;100.00;93169.13;2568494;23;20015;-83
2023/01/26 01:37:17;;;;;;;24.73;12.50;;;;;;;-2.63;100.00;93167.22;2544628;23;20013;-83
2023/01/26 01:38:18;;;;;;;27.00;12.25;;;;;;;-2.65;100.00;93170.16;2544465;23;20770;-85
2023/01/26 01:39:19;;;;;;;22.73;11.90;;;;;;;-2.76;100.00;93174.34;2557043;23;20327;-84
2023/01/26 01:40:20;;;;;;;30.05;12.30;;;;;;;-2.58;100.00;93180.84;2569858;23;20013;-82
2023/01/26 01:41:22;;;;;;;25.80;12.45;;;;;;;-2.79;100.00;93175.00;2557765;23;20004;-84
2023/01/26 01:42:23;;;;;;;26.08;13.00;;;;;;;-2.80;100.00;93176.09;2557748;23;20091;-82
2023/01/26 01:43:26;;;;;;;22.55;12.32;;;;;;;-2.85;100.00;93178.94;2557349;23;20056;-84
2023/01/26 01:44:27;;;;;;;25.17;13.80;;;;;;;-2.86;100.00;93178.16;2545537;23;20008;-82
2023/01/26 01:45:44;;;;;;;25.98;13.18;;;;;;;-2.93;100.00;93175.34;2545082;23;20009;-82
2023/01/26 01:46:55;;;;;;;25.33;11.70;;;;;;;-2.95;100.00;93176.75;2551496;23;20005;-83
2023/01/26 01:48:03;;;;;;;25.05;12.52;;;;;;;-2.97;100.00;93174.47;2559387;23;20055;-82
2023/01/26 01:49:15;;;;;;;26.83;12.63;;;;;;;-2.96;100.00;93173.38;2547175;23;20435;-83
2023/01/26 01:50:20;;;;;;;22.70;11.75;;;;;;;-2.98;100.00;93178.19;2558540;23;20057;-84
2023/01/26 01:51:42;;;;;;;23.95;12.98;;;;;;;-2.75;100.00;93169.88;2546312;23;20121;-81
2023/01/26 01:52:43;;;;;;;22.95;12.15;;;;;;;-2.76;100.00;93170.97;2553514;23;20039;-81
2023/01/26 01:53:49;;;;;;;23.15;11.63;;;;;;;-2.38;100.00;93163.44;2545030;23;20010;-83
2023/01/26 01:54:57;;;;;;;22.00;12.02;;;;;;;-2.37;100.00;93158.94;2557731;23;20005;-84
2023/01/26 01:56:02;;;;;;;25.08;12.25;;;;;;;-2.51;100.00;93158.56;2558204;23;20013;-84
2023/01/26 01:57:14;;;;;;;22.05;11.68;;;;;;;-2.68;100.00;93152.50;2557704;23;20012;-83
2023/01/26 01:58:15;;;;;;;20.48;11.25;;;;;;;-2.56;100.00;93157.72;2548919;23;20012;-84
2023/01/26 01:59:22;;;;;;;23.73;12.73;;;;;;;-2.71;100.00;93147.19;2556700;23;20029;-84
2023/01/26 02:00:28;;;;;;;25.25;12.73;;;;;;;-2.81;100.00;93153.63;2559178;23;20005;-83
2023/01/26 02:01:30;;;;;;;21.70;12.68;;;;;;;-2.89;100.00;93152.69;2557075;23;20532;-83
2023/01/26 02:02:31;;;;;;;27.63;13.10;;;;;;;-2.93;100.00;93148.44;2556488;23;20009;-85
2023/01/26 02:03:33;;;;;;;26.85;12.95;;;;;;;-2.99;100.00;93154.97;2556373;23;20095;-83
2023/01/26 02:04:35;;;;;;;26.95;12.60;;;;;;;-2.96;100.00;93149.84;2556927;23;20036;-83
2023/01/26 02:05:44;;;;;;;28.13;13.20;;;;;;;-2.95;100.00;93150.59;2557787;23;20028;-84
2023/01/26 02:06:50;;;;;;;26.23;13.35;;;;;;;-2.89;100.00;93154.53;2558406;23;20111;-83
2023/01/26 02:07:53;;;;;;;25.23;12.77;;;;;;;-2.90;100.00;93147.75;2557536;23;20015;-84
2023/01/26 02:08:55;;;;;;;23.75;12.57;;;;;;;-2.80;100.00;93149.94;2556879;23;20427;-83
2023/01/26 02:11:23;;;;;;;21.05;11.45;;;;;;;-2.95;100.00;93151.38;2564773;23;20017;-83
2023/01/26 02:12:29;;;;;;;21.55;11.25;;;;;;;-3.00;100.00;93151.59;2558750;23;20005;-81
2023/01/26 02:13:32;;;;;;;23.10;11.85;;;;;;;-2.92;100.00;93142.13;2559798;23;20093;-83
2023/01/26 02:14:33;;;;;;;22.67;11.50;;;;;;;-2.77;100.00;93141.41;2558031;23;20143;-83
2023/01/26 02:15:34;;;;;;;22.70;11.38;;;;;;;-2.60;100.00;93138.53;2557523;23;20047;-82
2023/01/26 02:16:38;;;;;;;19.88;11.15;;;;;;;-2.62;100.00;93142.59;2558234;23;20065;-80
2023/01/26 02:17:39;;;;;;;22.33;11.82;;;;;;;-2.72;100.00;93140.41;2569940;23;20004;-84
2023/01/26 02:18:42;;;;;;;22.58;12.20;;;;;;;-2.71;100.00;93140.09;2570490;23;20011;-84
2023/01/26 02:19:57;;;;;;;20.30;11.00;;;;;;;-2.61;100.00;93142.25;2559470;23;20001;-83
2023/01/26 02:21:01;;;;;;;18.33;10.73;;;;;;;-2.81;100.00;93148.41;2551581;23;20009;-83
2023/01/26 02:22:09;;;;;;;22.63;11.48;;;;;;;-2.85;100.00;93142.31;2546948;23;20352;-82
2023/01/26 02:23:14;;;;;;;24.88;12.32;;;;;;;-2.90;100.00;93140.69;2548328;23;20012;-83
2023/01/26 02:24:23;;;;;;;24.90;12.02;;;;;;;-3.07;100.00;93139.09;2546721;23;20044;-82
2023/01/26 02:25:42;;;;;;;28.05;10.90;;;;;;;-3.09;100.00;93138.66;2561082;23;20012;-85
2023/01/26 02:26:43;;;;;;;26.85;12.82;;;;;;;-3.01;100.00;93138.88;2569863;23;20470;-84
2023/01/26 02:27:45;;;;;;;25.13;11.23;;;;;;;-3.04;100.00;93148.13;2545495;23;20017;-83
2023/01/26 02:28:47;;;;;;;24.08;12.38;;;;;;;-3.04;100.00;93141.03;2557411;23;20335;-82
2023/01/26 02:29:49;;;;;;;20.05;11.27;;;;;;;-3.12;100.00;93136.69;2557581;23;20644;-82
2023/01/26 02:30:51;;;;;;;22.63;11.18;;;;;;;-3.08;100.00;93137.56;2545582;23;20416;-83
2023/01/26 02:31:54;;;;;;;21.30;12.13;;;;;;;-3.11;100.00;93135.63;2545196;23;20009;-83
2023/01/26 02:32:55;;;;;;;24.90;11.82;;;;;;;-3.05;100.00;93131.66;2557273;23;20005;-83
2023/01/26 02:33:56;;;;;;;23.55;11.98;;;;;;;-2.96;100.00;93128.94;2544262;23;20433;-84
2023/01/26 02:34:57;;;;;;;24.75;11.23;;;;;;;-2.80;100.00;93132.38;2545175;23;20080;-84
2023/01/26 02:35:59;;;;;;;20.77;10.70;;;;;;;-2.92;100.00;93124.56;2546133;23;20014;-84
2023/01/26 02:37:00;;;;;;;22.38;11.63;;;;;;;-2.88;100.00;93122.81;2545070;23;20077;-84
2023/01/26 02:38:01;;;;;;;21.85;11.85;;;;;;;-2.94;100.00;93129.38;2544338;23;20089;-83
2023/01/26 02:39:34;;;;;;;27.40;11.43;;;;;;;-3.03;100.00;93131.34;2544352;23;20012;-80
2023/01/26 02:40:59;;;;;;;20.55;10.57;;;;;;;-2.99;100.00;93121.75;2513832;23;20057;-81
2023/01/26 02:42:43;;;;;;;24.63;11.00;;;;;;;-2.99;100.00;93124.34;2524106;23;20017;-83
2023/01/26 02:43:28;;;;;;;22.30;11.45;;;;;;;-3.02;100.00;93121.66;2561035;23;20398;-84
2023/01/26 02:44:31;;;;;;;24.63;11.68;;;;;;;-3.06;100.00;93122.31;2569043;23;20004;-83
2023/01/26 02:45:33;;;;;;;24.88;12.20;;;;;;;-3.03;100.00;93126.09;2545655;23;20008;-82
2023/01/26 02:46:34;;;;;;;26.60;11.30;;;;;;;-3.11;100.00;93122.53;2545266;23;20009;-83
2023/01/26 02:47:35;;;;;;;27.60;11.60;;;;;;;-3.10;100.00;93118.81;2556867;23;20020;-83
2023/01/26 02:49:57;;;;;;;30.40;11.85;;;;;;;-3.18;100.00;93127.56;2564337;23;20044;-81
2023/01/26 02:50:58;;;;;;;22.85;11.75;;;;;;;-3.12;100.00;93121.00;2556711;23;20108;-83
2023/01/26 02:51:59;;;;;;;23.95;12.13;;;;;;;-2.99;100.00;93120.97;2544517;23;20017;-83
2023/01/26 02:53:01;;;;;;;24.02;11.63;;;;;;;-3.07;100.00;93117.41;2557245;23;20005;-83
2023/01/26 02:54:02;;;;;;;21.52;11.07;;;;;;;-3.12;100.00;93115.78;2553229;23;20001;-82
2023/01/26 02:55:22;;;;;;;25.08;12.15;;;;;;;-3.11;100.00;93116.56;2567078;23;20040;-80
2023/01/26 02:56:23;;;;;;;26.13;12.10;;;;;;;-3.12;100.00;93110.53;2568213;23;20084;-82
2023/01/26 02:57:24;;;;;;;24.55;13.00;;;;;;;-3.14;100.00;93117.19;2546688;23;20036;-84
2023/01/26 02:58:26;;;;;;;24.50;12.43;;;;;;;-3.07;100.00;93110.34;2559399;23;20016;-81
2023/01/26 02:59:27;;;;;;;23.38;12.20;;;;;;;-3.04;100.00;93114.88;2546824;23;20081;-82
2023/01/26 03:00:35;;;;;;;23.85;12.73;;;;;;;-3.06;100.00;93111.09;2558501;23;20380;-83
2023/01/26 03:01:36;;;;;;;25.20;12.93;;;;;;;-3.04;100.00;93108.91;2549084;23;20538;-82
2023/01/26 03:02:39;;;;;;;26.20;13.52;;;;;;;-3.10;100.00;93118.81;2558000;23;20037;-84
2023/01/26 03:03:40;;;;;;;23.90;12.90;;;;;;;-3.10;100.00;93108.38;2569839;23;20423;-85
2023/01/26 03:04:42;;;;;;;24.02;11.82;;;;;;;-3.02;100.00;93113.81;2557338;23;20001;-83
2023/01/26 03:05:43;;;;;;;22.83;12.50;;;;;;;-2.99;100.00;93118.38;2569475;23;20024;-83
2023/01/26 03:06:44;;;;;;;26.33;13.02;;;;;;;-2.97;100.00;93114.34;2557195;23;20009;-84
2023/01/26 03:07:45;;;;;;;25.35;13.00;;;;;;;-2.97;100.00;93111.72;2557153;23;20009;-83
2023/01/26 03:08:46;;;;;;;27.27;12.88;;;;;;;-2.98;100.00;93110.22;2557125;23;20005;-82
2023/01/26 03:09:47;;;;;;;24.55;12.63;;;;;;;-2.98;100.00;93110.22;2557179;23;20022;-83
2023/01/26 03:10:48;;;;;;;24.98;13.10;;;;;;;-2.97;100.00;93110.97;2569428;23;20008;-84
2023/01/26 03:11:49;;;;;;;23.88;12.48;;;;;;;-2.94;100.00;93105.06;2569483;23;20324;-83
2023/01/26 03:12:50;;;;;;;22.23;11.82;;;;;;;-2.90;100.00;93111.16;2569747;23;20005;-84
2023/01/26 03:13:51;;;;;;;27.35;12.10;;;;;;;-2.88;100.00;93106.38;2545305;23;20064;-82
2023/01/26 03:16:17;;;;;;;26.33;12.93;;;;;;;-2.91;100.00;93101.78;2564798;23;20348;-83
2023/01/26 03:17:18;;;;;;;29.27;14.02;;;;;;;-2.96;100.00;93104.63;2570748;23;20004;-82
2023/01/26 03:27:41;;;;;;;24.05;12.02;;;;;;;-3.07;100.00;93120.03;2573581;23;20023;-80
2023/01/26 03:28:42;;;;;;;26.30;12.80;;;;;;;-3.15;100.00;93111.22;2558146;23;20008;-82
2023/01/26 03:29:44;;;;;;;27.63;13.13;;;;;;;-3.09;100.00;93117.72;2557192;23;20404;-83
2023/01/26 03:30:45;;;;;;;25.27;11.18;;;;;;;-2.99;100.00;93113.91;2557161;23;20028;-82
2023/01/26 03:31:46;;;;;;;25.83;12.60;;;;;;;-3.04;100.00;93112.28;2545044;23;20002;-82
2023/01/26 03:32:47;;;;;;;24.45;13.10;;;;;;;-3.07;100.00;93114.81;2557268;23;20447;-81
2023/01/26 03:33:47;;;;;;;22.70;12.40;;;;;;;-3.10;100.00;93116.22;2569581;23;20059;-83
2023/01/26 03:34:48;;;;;;;26.90;13.15;;;;;;;-3.04;100.00;93121.97;2544856;23;20013;-84
2023/01/26 03:35:52;;;;;;;27.30;13.90;;;;;;;-3.00;100.00;93122.84;2545282;23;20029;-83
2023/01/26 03:36:54;;;;;;;25.60;12.23;;;;;;;-2.91;100.00;93118.25;2558757;23;20379;-84
2023/01/26 03:37:55;;;;;;;27.15;12.32;;;;;;;-2.92;100.00;93118.56;2553428;23;20001;-81
2023/01/26 03:38:56;;;;;;;30.63;13.27;;;;;;;-2.97;100.00;93116.97;2567412;23;19992;-83
2023/01/26 03:56:17;;;;;;;23.42;12.02;;;;;;;-3.14;100.00;93102.28;2573703;23;20015;-83
2023/01/26 03:57:17;;;;;;;25.38;12.20;;;;;;;-3.14;100.00;93097.06;2560406;23;20015;-83
2023/01/26 03:58:18;;;;;;;25.75;11.75;;;;;;;-3.10;100.00;93102.38;2545495;23;20364;-83
2023/01/26 03:59:36;;;;;;;30.75;12.50;;;;;;;-3.11;100.00;93091.16;2544960;23;20364;-83
2023/01/26 04:00:37;;;;;;;23.48;11.88;;;;;;;-3.05;100.00;93097.69;2564505;23;20074;-82
2023/01/26 04:08:26;;;;;;;21.17;10.60;;;;;;;-3.03;100.00;93084.28;2573433;23;20011;-84
2023/01/26 04:09:27;;;;;;;22.77;10.85;;;;;;;-3.01;100.00;93091.81;2558012;23;20032;-83
2023/01/26 04:10:29;;;;;;;23.77;11.95;;;;;;;-2.94;100.00;93081.53;2570095;22;20339;-83
2023/01/26 04:11:31;;;;;;;24.65;11.60;;;;;;;-3.00;100.00;93081.00;2569432;23;19997;-83
2023/01/26 04:12:32;;;;;;;23.20;11.32;;;;;;;-2.96;100.00;93087.09;2544956;23;20345;-81
2023/01/26 04:21:40;;;;;;;24.13;11.75;;;;;;;-3.10;100.00;93065.78;2573503;23;20036;-83
2023/01/26 04:22:43;;;;;;;22.65;11.82;;;;;;;-3.09;100.00;93062.84;2557404;23;20057;-83
2023/01/26 04:23:44;;;;;;;22.60;11.30;;;;;;;-3.05;100.00;93058.47;2545744;23;20005;-83
2023/01/26 04:24:45;;;;;;;26.63;11.45;;;;;;;-3.10;100.00;93057.94;2556893;23;20043;-81
2023/01/26 04:25:47;;;;;;;22.67;11.50;;;;;;;-3.06;100.00;93058.81;2556639;23;20002;-84
2023/01/26 04:26:48;;;;;;;26.17;12.00;;;;;;;-3.06;100.00;93061.44;2545383;23;20037;-85
2023/01/26 04:27:49;;;;;;;24.30;12.63;;;;;;;-3.04;100.00;93065.22;2556960;23;20013;-83
2023/01/26 04:28:50;;;;;;;22.95;12.10;;;;;;;-3.18;100.00;93064.81;2556721;23;20043;-83
2023/01/26 04:29:51;;;;;;;23.60;11.50;;;;;;;-3.15;100.00;93058.94;2544745;23;20012;-82
2023/01/26 04:30:52;;;;;;;19.77;10.68;;;;;;;-2.83;100.00;93054.59;2569545;23;20501;-83
2023/01/26 04:31:53;;;;;;;22.80;11.25;;;;;;;-2.89;100.00;93061.16;2556924;23;20001;-84
2023/01/26 04:32:54;;;;;;;21.90;11.07;;;;;;;-2.97;100.00;93050.84;2556914;23;20047;-84
2023/01/26 04:33:55;;;;;;;27.98;12.65;;;;;;;-2.87;100.00;93053.72;2544966;23;20044;-84
2023/01/26 04:34:58;;;;;;;24.27;12.48;;;;;;;-2.92;100.00;93061.06;2545039;23;20012;-84
2023/01/26 04:36:06;;;;;;;24.55;12.68;;;;;;;-2.98;100.00;93054.53;2558409;23;20013;-84
2023/01/26 04:37:08;;;;;;;20.00;10.77;;;;;;;-3.05;100.00;93053.25;2571138;23;20000;-81
2023/01/26 04:38:09;;;;;;;27.08;12.35;;;;;;;-3.11;100.00;93049.34;2557703;23;20008;-84
2023/01/26 04:39:11;;;;;;;21.73;11.50;;;;;;;-3.05;100.00;93047.25;2545399;23;20376;-82
2023/01/26 04:40:12;;;;;;;23.40;11.15;;;;;;;-3.00;100.00;93041.78;2557539;23;20005;-85
2023/01/26 04:41:13;;;;;;;22.20;11.07;;;;;;;-3.01;100.00;93052.59;2569634;23;20008;-83
2023/01/26 04:42:14;;;;;;;23.45;11.63;;;;;;;-3.02;100.00;93045.84;2569401;23;20004;-83
2023/01/26 04:43:15;;;;;;;22.77;11.27;;;;;;;-2.87;100.00;93056.34;2544345;23;20400;-82
2023/01/26 04:44:16;;;;;;;23.10;11.65;;;;;;;-2.90;100.00;93046.53;2569451;23;20205;-83
2023/01/26 04:45:17;;;;;;;21.70;11.45;;;;;;;-2.95;100.00;93051.25;2569775;23;20008;-83
2023/01/26 04:46:18;;;;;;;22.73;10.93;;;;;;;-3.05;100.00;93047.25;2544621;23;20079;-83
2023/01/26 04:47:20;;;;;;;22.15;11.55;;;;;;;-3.00;100.00;93041.03;2556989;23;20001;-84
2023/01/26 04:48:21;;;;;;;18.77;10.75;;;;;;;-2.94;100.00;93040.47;2545219;23;20020;-82
2023/01/26 04:49:22;;;;;;;23.00;12.30;;;;;;;-2.99;100.00;93039.94;2544523;23;20021;-83
2023/01/26 04:50:22;;;;;;;24.33;11.80;;;;;;;-3.07;100.00;93036.38;2545126;23;20032;-82
2023/01/26 04:51:24;;;;;;;22.45;12.10;;;;;;;-3.11;100.00;93044.13;2556786;23;20001;-82
2023/01/26 04:52:25;;;;;;;25.42;11.80;;;;;;;-3.10;100.00;93039.66;2556841;23;20509;-83
2023/01/26 04:53:28;;;;;;;20.50;11.07;;;;;;;-3.17;100.00;93048.03;2557222;23;20032;-84
2023/01/26 04:54:29;;;;;;;20.17;10.88;;;;;;;-3.16;100.00;93048.78;2570124;23;20000;-82
2023/01/26 04:55:35;;;;;;;17.88;10.27;;;;;;;-3.17;100.00;93048.03;2569351;23;20525;-82
2023/01/26 04:56:36;;;;;;;20.45;11.05;;;;;;;-3.14;100.00;93039.53;2569379;23;20000;-85
2023/01/26 04:57:37;;;;;;;18.88;10.63;;;;;;;-3.11;100.00;93038.88;2545085;23;20010;-82
2023/01/26 04:58:38;;;;;;;19.15;10.50;;;;;;;-3.18;100.00;93038.69;2545069;23;20032;-84
2023/01/26 04:59:40;;;;;;;89.78;41.25;;;;;;;-3.20;100.00;93035.66;2570071;23;20005;-83
2023/01/26 05:00:41;;;;;;;18.85;10.70;;;;;;;-3.20;100.00;93040.13;2557453;23;20008;-82
2023/01/26 05:01:42;;;;;;;41.47;21.95;;;;;;;-3.18;100.00;93041.28;2545067;23;20320;-84
2023/01/26 05:02:43;;;;;;;23.80;12.30;;;;;;;-3.18;100.00;93038.69;2544667;23;20093;-84
2023/01/26 05:03:44;;;;;;;19.77;10.15;;;;;;;-3.18;100.00;93041.28;2544888;23;20012;-84
2023/01/26 05:04:45;;;;;;;21.00;11.27;;;;;;;-3.21;100.00;93031.50;2545204;23;20416;-83
2023/01/26 05:05:52;;;;;;;20.27;11.35;;;;;;;-3.13;100.00;93035.84;2545238;23;20075;-81
2023/01/26 05:06:53;;;;;;;18.65;9.95;;;;;;;-3.16;100.00;93041.75;2546962;23;20088;-83
2023/01/26 05:07:54;;;;;;;19.25;9.38;;;;;;;-3.13;100.00;93045.53;2557533;23;20001;-82
2023/01/26 05:08:56;;;;;;;17.02;9.52;;;;;;;-3.15;100.00;93042.50;2557401;23;20001;-83
2023/01/26 05:09:57;;;;;;;16.95;9.93;;;;;;;-3.13;100.00;93042.91;2545293;23;20056;-83
2023/01/26 05:10:57;;;;;;;17.25;9.95;;;;;;;-3.16;100.00;93046.97;2544821;23;20020;-84
2023/01/26 05:12:32;;;;;;;19.90;10.02;;;;;;;-3.16;100.00;93041.75;2544662;23;20005;-83
2023/01/26 05:13:19;;;;;;;22.52;12.80;;;;;;;-3.17;100.00;93042.81;2565274;23;20015;-84
2023/01/26 05:14:20;;;;;;;15.45;8.90;;;;;;;-3.20;100.00;93040.13;2569487;23;20032;-83
2023/01/26 05:15:23;;;;;;;16.40;9.80;;;;;;;-3.22;100.00;93042.28;2569611;23;20100;-80
2023/01/26 05:16:24;;;;;;;15.50;8.98;;;;;;;-3.23;100.00;93049.38;2545475;23;20020;-82
2023/01/26 05:17:25;;;;;;;17.20;8.68;;;;;;;-3.35;100.00;93044.91;2557644;23;20009;-84
2023/01/26 05:18:26;;;;;;;20.20;9.75;;;;;;;-3.33;100.00;93047.22;2557459;23;20333;-83
2023/01/26 05:19:27;;;;;;;18.92;10.73;;;;;;;-3.35;100.00;93050.16;2556940;23;20001;-82
2023/01/26 05:20:28;;;;;;;15.30;9.30;;;;;;;-3.36;100.00;93053.09;2569256;23;20023;-82
2023/01/26 05:21:29;;;;;;;17.48;9.98;;;;;;;-3.35;100.00;93055.38;2569683;23;20008;-83
2023/01/26 05:22:30;;;;;;;18.60;10.73;;;;;;;-3.39;100.00;93049.28;2582296;23;20073;-80
2023/01/26 05:23:32;;;;;;;20.65;11.82;;;;;;;-3.30;100.00;93057.00;2557004;23;20009;-83
2023/01/26 05:24:33;;;;;;;19.08;9.77;;;;;;;-3.35;100.00;93052.75;2557384;23;20344;-83
2023/01/26 05:25:34;;;;;;;17.08;9.88;;;;;;;-3.36;100.00;93048.63;2569778;23;20110;-83
2023/01/26 05:26:36;;;;;;;18.25;10.70;;;;;;;-3.30;100.00;93059.59;2558071;23;20005;-82
2023/01/26 05:27:37;;;;;;;18.92;10.63;;;;;;;-3.25;100.00;93053.41;2566571;23;20019;-81
2023/01/26 05:28:38;;;;;;;18.58;10.10;;;;;;;-3.28;100.00;93057.44;2565133;23;20040;-83
2023/01/26 05:29:39;;;;;;;17.13;9.65;;;;;;;-3.22;100.00;93057.97;2550056;23;20014;-81
2023/01/26 05:30:40;;;;;;;18.13;9.82;;;;;;;-3.21;100.00;93055.00;2559098;23;20001;-83